Time;durP1;ratioP1;P1;durP2;ratioP2;P2;SDS_P1;SDS_P2;PMS_P1;PMS_P2;Temp;Humidity;BMP_temperature;BMP_pressure;BME280_temperature;BME280_humidity;BME280_pressure;Samples;Min_cycle;Max_cycle;Signal;HPM_P1;HPM_P2
2021/09/05 00:01:15;;;;;;;59.17;3.20;;;14.00;1.00;;;;;;5074911;28;20442;-71
2021/09/05 00:03:42;;;;;;;58.43;2.90;;;14.00;1.00;;;;;;5074628;28;20561;-70
2021/09/05 00:06:09;;;;;;;58.73;3.40;;;14.00;1.00;;;;;;5074607;28;20470;-71
2021/09/05 00:08:36;;;;;;;60.30;3.30;;;13.90;1.00;;;;;;5074990;28;20911;-70
2021/09/05 00:11:03;;;;;;;59.00;3.10;;;13.90;1.00;;;;;;5074856;28;20447;-70
2021/09/05 00:13:31;;;;;;;58.53;2.90;;;13.80;1.00;;;;;;5074756;28;20471;-71
2021/09/05 00:15:58;;;;;;;58.47;3.17;;;13.80;1.00;;;;;;5074641;28;20891;-71
2021/09/05 00:18:25;;;;;;;58.27;3.00;;;13.70;1.00;;;;;;5074811;28;20479;-71
2021/09/05 00:20:52;;;;;;;58.87;2.90;;;13.70;1.00;;;;;;5074701;28;20452;-71
2021/09/05 00:23:18;;;;;;;58.77;2.87;;;13.70;1.00;;;;;;5074673;28;20469;-71
2021/09/05 00:25:45;;;;;;;58.23;2.87;;;13.70;1.00;;;;;;5074398;28;20978;-71
2021/09/05 00:28:12;;;;;;;58.63;3.20;;;13.70;1.00;;;;;;5074404;28;20439;-71
2021/09/05 00:30:40;;;;;;;59.40;4.20;;;13.70;1.00;;;;;;5074477;28;20443;-71
2021/09/05 00:33:08;;;;;;;60.17;3.47;;;13.70;1.00;;;;;;5073974;28;20509;-70
2021/09/05 00:35:35;;;;;;;58.53;2.90;;;13.60;1.00;;;;;;5074482;28;20473;-71
2021/09/05 00:38:02;;;;;;;58.13;2.90;;;13.60;1.00;;;;;;5074477;28;20484;-71
2021/09/05 00:40:29;;;;;;;58.47;2.97;;;13.60;1.00;;;;;;5074056;28;20454;-71
2021/09/05 00:42:56;;;;;;;58.73;3.50;;;13.60;1.00;;;;;;5073985;28;20463;-71
2021/09/05 00:45:23;;;;;;;58.10;2.60;;;13.60;1.00;;;;;;5074296;28;20478;-71
2021/09/05 00:47:51;;;;;;;58.27;2.90;;;13.50;1.00;;;;;;5074243;28;20447;-70
2021/09/05 00:50:18;;;;;;;58.63;2.77;;;13.50;1.00;;;;;;5073874;28;20482;-71
2021/09/05 00:52:45;;;;;;;60.07;3.40;;;13.40;1.00;;;;;;5073784;28;21005;-71
2021/09/05 00:55:13;;;;;;;58.57;2.80;;;13.30;1.00;;;;;;5073904;28;20542;-71
2021/09/05 00:57:42;;;;;;;58.77;3.07;;;13.30;1.00;;;;;;5073589;28;20475;-70
2021/09/05 01:00:10;;;;;;;58.77;3.63;;;13.20;1.00;;;;;;5073593;28;20831;-71
2021/09/05 01:02:37;;;;;;;58.57;2.70;;;13.20;1.00;;;;;;5073403;28;20550;-71
2021/09/05 01:05:08;;;;;;;58.50;3.30;;;13.20;1.00;;;;;;5073773;28;20479;-70
2021/09/05 01:07:34;;;;;;;58.60;2.90;;;13.20;1.00;;;;;;5073893;28;20952;-71
2021/09/05 01:10:01;;;;;;;58.50;3.47;;;13.20;1.00;;;;;;5073393;28;20829;-71
2021/09/05 01:12:29;;;;;;;58.27;2.80;;;13.20;1.00;;;;;;5073337;28;20474;-71
2021/09/05 01:14:55;;;;;;;58.33;3.23;;;13.20;1.00;;;;;;5073342;28;20984;-71
2021/09/05 01:17:22;;;;;;;58.80;3.10;;;13.20;1.00;;;;;;5073153;28;20546;-71
2021/09/05 01:19:49;;;;;;;59.20;3.77;;;13.20;1.00;;;;;;5073358;28;20533;-71
2021/09/05 01:22:20;;;;;;;58.70;3.00;;;13.10;1.00;;;;;;5073297;28;20447;-70
2021/09/05 01:24:47;;;;;;;58.60;2.90;;;13.10;1.00;;;;;;5073180;28;20943;-70
2021/09/05 01:27:15;;;;;;;58.70;2.60;;;13.10;1.00;;;;;;5073367;28;20533;-71
2021/09/05 01:29:42;;;;;;;58.70;3.03;;;13.10;1.00;;;;;;5073145;28;20451;-71
2021/09/05 01:32:09;;;;;;;58.47;2.90;;;13.10;1.00;;;;;;5073176;28;20453;-71
2021/09/05 01:34:36;;;;;;;58.27;2.60;;;13.00;1.00;;;;;;5073014;28;20449;-71
2021/09/05 01:37:03;;;;;;;58.07;2.60;;;13.00;1.00;;;;;;5073007;28;20533;-70
2021/09/05 01:39:29;;;;;;;58.80;2.90;;;13.00;1.00;;;;;;5072650;28;20571;-71
2021/09/05 01:41:56;;;;;;;58.20;2.80;;;13.00;1.00;;;;;;5072842;28;20550;-71
2021/09/05 01:44:25;;;;;;;58.67;3.17;;;13.00;1.00;;;;;;5072848;28;20451;-71
2021/09/05 01:46:53;;;;;;;58.30;2.60;;;13.00;1.00;;;;;;5072074;28;20485;-71
2021/09/05 01:49:19;;;;;;;58.80;2.87;;;13.00;1.00;;;;;;5072505;28;20822;-71
2021/09/05 01:51:46;;;;;;;58.80;3.10;;;13.00;1.00;;;;;;5072910;28;20447;-70
2021/09/05 01:54:13;;;;;;;58.80;3.23;;;12.90;1.00;;;;;;5072750;28;20493;-70
2021/09/05 01:56:40;;;;;;;58.73;2.80;;;12.80;1.00;;;;;;5072580;28;20453;-71
2021/09/05 01:59:07;;;;;;;58.90;3.10;;;12.80;1.00;;;;;;5072239;28;20573;-70
2021/09/05 02:01:35;;;;;;;58.57;2.80;;;12.80;1.00;;;;;;5071990;28;20534;-71
2021/09/05 02:04:05;;;;;;;60.30;4.30;;;12.70;1.00;;;;;;5072308;28;20558;-71
2021/09/05 02:06:32;;;;;;;58.57;3.20;;;12.70;1.00;;;;;;5072390;28;20963;-71
2021/09/05 02:08:59;;;;;;;58.37;2.80;;;12.70;1.00;;;;;;5072591;28;20443;-71
2021/09/05 02:11:26;;;;;;;58.30;2.90;;;12.80;1.00;;;;;;5072487;28;20447;-70
2021/09/05 02:13:54;;;;;;;58.27;2.80;;;12.80;1.00;;;;;;5072230;28;20851;-71
2021/09/05 02:16:21;;;;;;;58.50;2.97;;;12.80;1.00;;;;;;5072519;28;20526;-71
2021/09/05 02:18:50;;;;;;;58.80;2.97;;;12.70;1.00;;;;;;5072604;28;20505;-71
2021/09/05 02:21:17;;;;;;;58.37;2.90;;;12.80;1.00;;;;;;5072556;28;20526;-71
2021/09/05 02:23:44;;;;;;;58.77;3.33;;;12.70;1.00;;;;;;5072493;28;20513;-71
2021/09/05 02:26:10;;;;;;;58.27;3.10;;;12.70;1.00;;;;;;5072200;28;20447;-71
2021/09/05 02:28:37;;;;;;;58.60;3.10;;;12.70;1.00;;;;;;5072199;28;20462;-71
2021/09/05 02:31:04;;;;;;;59.47;4.33;;;12.70;1.00;;;;;;5072175;28;20534;-71
2021/09/05 02:33:31;;;;;;;58.87;3.63;;;12.70;1.00;;;;;;5072169;28;20465;-71
2021/09/05 02:35:59;;;;;;;58.10;2.60;;;12.70;1.00;;;;;;5072350;28;20453;-71
2021/09/05 02:38:26;;;;;;;58.77;2.90;;;12.70;1.00;;;;;;5071972;28;20904;-70
2021/09/05 02:40:53;;;;;;;59.53;4.00;;;12.70;1.00;;;;;;5072202;28;20540;-71
2021/09/05 02:43:20;;;;;;;58.97;3.63;;;12.60;1.00;;;;;;5071863;28;20482;-71
2021/09/05 02:45:47;;;;;;;58.60;2.70;;;12.60;1.00;;;;;;5072176;28;20446;-71
2021/09/05 02:48:14;;;;;;;57.80;2.80;;;12.60;1.00;;;;;;5072086;28;20527;-71
2021/09/05 02:50:41;;;;;;;61.63;3.00;;;12.60;1.00;;;;;;5071708;28;20954;-71
2021/09/05 02:53:09;;;;;;;58.50;3.07;;;12.70;1.00;;;;;;5071803;28;20558;-71
2021/09/05 02:55:36;;;;;;;58.77;2.80;;;12.60;1.00;;;;;;5071837;28;20453;-72
2021/09/05 02:58:03;;;;;;;58.20;2.87;;;12.70;1.00;;;;;;5071446;28;20538;-72
2021/09/05 03:00:30;;;;;;;58.53;3.00;;;12.70;1.00;;;;;;5071614;28;20959;-72
2021/09/05 03:02:56;;;;;;;60.67;3.57;;;12.60;1.00;;;;;;5071882;28;20947;-72
2021/09/05 03:05:23;;;;;;;58.50;2.87;;;12.60;1.00;;;;;;5071683;28;20975;-71
2021/09/05 03:07:50;;;;;;;58.57;2.90;;;12.60;1.00;;;;;;5071687;28;20443;-71
2021/09/05 03:10:18;;;;;;;58.17;2.67;;;12.60;1.00;;;;;;5071831;28;20981;-72
2021/09/05 03:12:45;;;;;;;58.37;3.00;;;12.60;1.00;;;;;;5071874;28;20467;-71
2021/09/05 03:15:12;;;;;;;58.50;2.87;;;12.60;1.00;;;;;;5075491;28;20486;-71
2021/09/05 03:17:39;;;;;;;58.57;3.10;;;12.60;1.00;;;;;;5075789;28;20534;-70
2021/09/05 03:20:08;;;;;;;58.50;2.90;;;12.50;1.00;;;;;;5075885;28;20515;-71
2021/09/05 03:22:36;;;;;;;58.77;3.20;;;12.40;1.00;;;;;;5075458;28;20473;-72
2021/09/05 03:25:03;;;;;;;58.37;2.80;;;12.40;1.00;;;;;;5075501;28;20457;-72
2021/09/05 03:27:31;;;;;;;60.47;4.53;;;12.40;1.00;;;;;;5075644;28;20497;-71
2021/09/05 03:29:58;;;;;;;59.10;3.30;;;12.40;1.00;;;;;;5075482;28;21057;-71
2021/09/05 03:32:25;;;;;;;58.67;3.00;;;12.40;1.00;;;;;;5075627;28;20550;-71
2021/09/05 03:34:52;;;;;;;58.47;3.07;;;12.40;1.00;;;;;;5075611;28;20453;-72
2021/09/05 03:37:19;;;;;;;58.40;2.80;;;12.30;1.00;;;;;;5075332;28;20533;-72
2021/09/05 03:39:45;;;;;;;58.50;3.17;;;12.30;1.00;;;;;;5075262;28;20482;-72
2021/09/05 03:42:12;;;;;;;58.47;2.73;;;12.30;1.00;;;;;;5075337;28;20860;-71
2021/09/05 03:44:40;;;;;;;62.40;3.10;;;12.30;1.00;;;;;;5075233;28;20486;-72
2021/09/05 03:47:07;;;;;;;58.80;3.10;;;12.20;1.00;;;;;;5075073;28;20961;-72
2021/09/05 03:49:34;;;;;;;58.40;3.30;;;12.20;1.00;;;;;;5074927;28;20451;-71
2021/09/05 03:52:01;;;;;;;58.23;3.10;;;12.10;1.00;;;;;;5074867;28;20443;-71
2021/09/05 03:54:28;;;;;;;58.77;2.97;;;12.10;1.00;;;;;;5075036;28;21037;-71
2021/09/05 03:56:54;;;;;;;58.43;2.90;;;12.10;1.00;;;;;;5074768;28;20542;-71
2021/09/05 03:59:21;;;;;;;58.37;2.80;;;12.00;1.00;;;;;;5074870;28;20574;-71
2021/09/05 04:01:49;;;;;;;59.00;3.10;;;12.00;1.00;;;;;;5074974;28;20966;-72
2021/09/05 04:04:16;;;;;;;58.40;2.60;;;12.00;1.00;;;;;;5074665;28;20513;-71
2021/09/05 04:06:50;;;;;;;58.50;2.90;;;12.00;1.00;;;;;;5074531;28;20530;-71
2021/09/05 04:10:08;;;;;;;58.37;3.27;;;12.00;1.00;;;;;;5074673;28;20538;-71
2021/09/05 04:12:06;;;;;;;58.47;2.67;;;12.10;1.00;;;;;;5074476;28;20580;-71
2021/09/05 04:14:33;;;;;;;58.57;2.70;;;12.10;1.00;;;;;;5074880;28;20457;-71
2021/09/05 04:17:01;;;;;;;59.10;3.73;;;12.10;1.00;;;;;;5074595;28;20489;-71
2021/09/05 04:19:28;;;;;;;58.50;2.80;;;12.00;1.00;;;;;;5074285;28;20569;-72
2021/09/05 04:21:54;;;;;;;58.50;2.97;;;12.00;1.00;;;;;;5074712;28;20451;-72
2021/09/05 04:24:21;;;;;;;58.47;3.00;;;12.00;1.00;;;;;;5073990;28;20471;-71
2021/09/05 04:26:48;;;;;;;58.33;2.70;;;12.00;1.00;;;;;;5074573;28;20478;-72
2021/09/05 04:29:16;;;;;;;58.50;2.80;;;12.00;1.00;;;;;;5074228;28;20516;-72
2021/09/05 04:31:43;;;;;;;58.43;2.83;;;11.90;1.00;;;;;;5074244;28;20530;-72
2021/09/05 04:34:11;;;;;;;57.97;3.07;;;11.90;1.00;;;;;;5074418;28;20467;-71
2021/09/05 04:36:38;;;;;;;58.37;2.73;;;11.90;1.00;;;;;;5074423;28;20451;-71
2021/09/05 04:39:05;;;;;;;58.63;3.10;;;11.90;1.00;;;;;;5074013;28;20582;-71
2021/09/05 04:41:32;;;;;;;58.63;2.93;;;11.80;1.00;;;;;;5074337;28;20530;-72
2021/09/05 04:43:59;;;;;;;58.57;3.37;;;11.80;1.00;;;;;;5073976;28;20470;-71
2021/09/05 04:46:26;;;;;;;58.47;2.77;;;11.90;1.00;;;;;;5073911;28;20458;-71
2021/09/05 04:48:52;;;;;;;58.80;3.17;;;11.90;1.00;;;;;;5074042;28;21002;-71
2021/09/05 04:51:21;;;;;;;59.00;3.30;;;11.90;1.00;;;;;;5073924;28;20482;-71
2021/09/05 04:53:48;;;;;;;58.47;2.70;;;11.90;1.00;;;;;;5073960;28;20467;-71
2021/09/05 04:56:15;;;;;;;58.60;3.20;;;11.90;1.00;;;;;;5073831;28;20471;-71
2021/09/05 04:58:41;;;;;;;58.27;2.80;;;11.90;1.00;;;;;;5073771;28;20477;-72
2021/09/05 05:01:08;;;;;;;58.60;2.70;;;11.90;1.00;;;;;;5073521;28;20543;-72
2021/09/05 05:03:35;;;;;;;58.63;2.90;;;11.90;1.00;;;;;;5073517;28;20514;-71
2021/09/05 05:06:05;;;;;;;60.00;3.87;;;11.90;1.00;;;;;;5073656;28;20477;-71
2021/09/05 05:08:33;;;;;;;58.67;3.20;;;11.90;1.00;;;;;;5073737;28;20534;-71
2021/09/05 05:11:00;;;;;;;58.77;3.07;;;11.90;1.00;;;;;;5073739;28;20542;-71
2021/09/05 05:13:27;;;;;;;58.47;2.90;;;11.90;1.00;;;;;;5073378;28;20553;-71
2021/09/05 05:15:55;;;;;;;58.23;2.80;;;12.00;1.00;;;;;;5073415;28;20446;-72
2021/09/05 05:18:22;;;;;;;58.53;2.90;;;12.00;1.00;;;;;;5073507;28;20459;-72
2021/09/05 05:20:48;;;;;;;58.53;3.10;;;12.00;1.00;;;;;;5073442;28;20495;-71
2021/09/05 05:23:15;;;;;;;58.60;3.40;;;12.00;1.00;;;;;;5073345;28;21012;-72
2021/09/05 05:25:44;;;;;;;58.77;2.90;;;12.00;1.00;;;;;;5073332;28;20955;-72
2021/09/05 05:28:11;;;;;;;58.30;3.20;;;12.00;1.00;;;;;;5073387;28;20451;-71
2021/09/05 05:30:38;;;;;;;58.60;3.43;;;12.00;1.00;;;;;;5076524;28;20446;-71
2021/09/05 05:33:04;;;;;;;58.37;2.70;;;12.10;1.00;;;;;;5080397;28;20554;-71
2021/09/05 05:35:33;;;;;;;58.70;2.90;;;12.10;1.00;;;;;;5079936;28;20442;-72
2021/09/05 05:37:59;;;;;;;58.57;3.10;;;12.10;1.00;;;;;;5081122;28;20534;-72
2021/09/05 05:40:26;;;;;;;58.83;3.70;;;12.10;1.00;;;;;;5079022;28;20514;-71
2021/09/05 05:42:55;;;;;;;59.40;3.50;;;12.10;1.00;;;;;;5073522;28;20895;-71
2021/09/05 05:45:21;;;;;;;58.47;2.73;;;12.20;1.00;;;;;;5073106;28;20457;-71
2021/09/05 05:47:48;;;;;;;58.27;3.00;;;12.20;1.00;;;;;;5072815;28;20482;-71
2021/09/05 05:50:15;;;;;;;58.40;3.17;;;12.30;1.00;;;;;;5072713;28;20443;-70
2021/09/05 05:52:42;;;;;;;58.43;3.00;;;12.30;1.00;;;;;;5072736;28;20550;-71
2021/09/05 05:55:09;;;;;;;58.17;2.90;;;12.30;1.00;;;;;;5072613;28;20879;-71
2021/09/05 05:57:36;;;;;;;58.70;3.20;;;12.40;1.00;;;;;;5072687;28;20864;-71
2021/09/05 06:00:07;;;;;;;58.17;2.90;;;12.40;1.00;;;;;;5073061;28;20569;-71
2021/09/05 06:02:33;;;;;;;58.20;3.10;;;12.40;1.00;;;;;;5072403;28;20558;-70
2021/09/05 06:05:00;;;;;;;58.60;3.00;;;12.50;1.00;;;;;;5072984;28;20869;-71
2021/09/05 06:07:27;;;;;;;58.37;2.70;;;12.50;1.00;;;;;;5072428;28;20538;-71
2021/09/05 06:09:54;;;;;;;58.90;3.47;;;12.50;1.00;;;;;;5072613;28;20443;-71
2021/09/05 06:12:21;;;;;;;58.07;2.80;;;12.50;1.00;;;;;;5072485;28;20582;-71
2021/09/05 06:14:48;;;;;;;58.47;3.00;;;12.60;1.00;;;;;;5072412;28;20473;-72
2021/09/05 06:17:16;;;;;;;58.47;3.30;;;12.60;1.00;;;;;;5072388;28;21005;-72
2021/09/05 06:19:43;;;;;;;58.43;2.80;;;12.60;1.00;;;;;;5071978;28;21002;-71
2021/09/05 06:22:10;;;;;;;57.93;2.80;;;12.70;1.00;;;;;;5071968;28;20454;-72
2021/09/05 06:24:37;;;;;;;58.07;2.90;;;12.60;1.00;;;;;;5072146;28;20482;-72
2021/09/05 06:27:05;;;;;;;58.43;3.03;;;12.70;1.00;;;;;;5072439;28;20537;-72
2021/09/05 06:29:33;;;;;;;57.93;2.60;;;12.80;1.00;;;;;;5072306;28;20797;-70
2021/09/05 06:31:59;;;;;;;58.37;2.80;;;12.80;1.00;;;;;;5072048;28;20494;-71
2021/09/05 06:34:28;;;;;;;58.37;3.17;;;12.90;1.00;;;;;;5071977;28;20483;-71
2021/09/05 06:36:54;;;;;;;58.43;3.20;;;12.90;1.00;;;;;;5072015;28;20543;-71
2021/09/05 06:39:21;;;;;;;58.47;2.80;;;13.00;1.00;;;;;;5072015;28;20482;-71
2021/09/05 06:41:48;;;;;;;58.27;2.80;;;13.00;1.00;;;;;;5072032;28;20882;-72
2021/09/05 06:44:15;;;;;;;58.47;3.33;;;13.10;1.00;;;;;;5072027;28;21005;-72
2021/09/05 06:46:42;;;;;;;58.27;2.70;;;13.10;1.00;;;;;;5071815;28;21022;-72
2021/09/05 06:49:09;;;;;;;58.70;3.37;;;13.20;1.00;;;;;;5071935;28;20485;-71
2021/09/05 06:51:37;;;;;;;59.10;3.97;;;13.30;1.00;;;;;;5072107;28;20447;-71
2021/09/05 06:54:04;;;;;;;58.03;2.80;;;13.30;1.00;;;;;;5071771;28;20505;-72
2021/09/05 06:56:30;;;;;;;57.97;2.57;;;13.40;1.00;;;;;;5072077;28;20530;-71
2021/09/05 06:58:57;;;;;;;57.97;2.80;;;13.50;1.00;;;;;;5071982;28;20538;-71
2021/09/05 07:01:24;;;;;;;58.23;2.80;;;13.60;1.00;;;;;;5071711;28;21074;-71
2021/09/05 07:03:51;;;;;;;60.80;4.13;;;13.70;1.00;;;;;;5071698;28;20480;-71
2021/09/05 07:06:18;;;;;;;58.10;2.97;;;13.80;1.00;;;;;;5071711;28;21036;-72
2021/09/05 07:08:46;;;;;;;58.10;2.80;;;13.90;1.00;;;;;;5072143;28;20454;-72
2021/09/05 07:11:13;;;;;;;58.60;2.93;;;14.00;1.00;;;;;;5071952;28;20535;-71
2021/09/05 07:13:40;;;;;;;57.63;2.67;;;14.10;1.00;;;;;;5071621;28;20524;-71
2021/09/05 07:16:08;;;;;;;58.30;2.83;;;14.20;1.00;;;;;;5071721;28;20985;-71
2021/09/05 07:18:34;;;;;;;57.93;2.90;;;14.30;1.00;;;;;;5071545;28;20525;-71
2021/09/05 07:21:01;;;;;;;58.47;2.93;;;14.40;1.00;;;;;;5071619;28;20493;-71
2021/09/05 07:23:28;;;;;;;58.07;2.80;;;14.50;1.00;;;;;;5072094;28;20550;-71
2021/09/05 07:25:57;;;;;;;58.63;3.17;;;14.60;1.00;;;;;;5071751;28;20454;-72
2021/09/05 07:28:24;;;;;;;58.37;3.00;;;14.70;1.00;;;;;;5071595;28;20445;-70
2021/09/05 07:30:51;;;;;;;58.67;3.30;;;14.90;1.00;;;;;;5071212;28;20482;-71
2021/09/05 07:33:17;;;;;;;58.20;2.80;;;15.00;1.00;;;;;;5071573;28;20498;-72
2021/09/05 07:35:44;;;;;;;58.83;3.13;;;15.10;1.00;;;;;;5071824;28;20443;-71
2021/09/05 07:38:11;;;;;;;58.70;3.13;;;15.30;1.00;;;;;;5071333;28;20931;-72
2021/09/05 07:40:38;;;;;;;58.30;2.73;;;15.40;1.00;;;;;;5071127;28;21054;-69
2021/09/05 07:43:06;;;;;;;57.77;2.77;;;15.50;1.00;;;;;;5071438;28;20555;-69
2021/09/05 07:45:34;;;;;;;58.60;3.10;;;15.60;1.00;;;;;;5071706;28;20475;-69
2021/09/05 07:48:01;;;;;;;58.60;3.07;;;15.80;1.00;;;;;;5071525;28;20456;-69
2021/09/05 07:50:28;;;;;;;58.30;2.87;;;15.90;1.00;;;;;;5071129;28;20530;-69
2021/09/05 07:52:55;;;;;;;58.20;2.50;;;16.00;1.00;;;;;;5071611;28;20550;-69
2021/09/05 07:55:22;;;;;;;58.50;2.70;;;16.20;1.00;;;;;;5071215;28;20446;-70
2021/09/05 07:57:49;;;;;;;58.70;3.17;;;16.30;1.00;;;;;;5071518;28;20443;-70
2021/09/05 08:00:18;;;;;;;57.97;2.70;;;16.40;1.00;;;;;;5072845;28;20490;-70
2021/09/05 08:02:45;;;;;;;59.43;3.57;;;16.50;1.00;;;;;;5074890;28;20583;-70
2021/09/05 08:05:12;;;;;;;58.33;2.60;;;16.70;1.00;;;;;;5074818;28;20521;-70
2021/09/05 08:07:39;;;;;;;58.27;2.97;;;16.80;1.00;;;;;;5075173;28;20550;-70
2021/09/05 08:10:07;;;;;;;61.37;4.60;;;17.00;1.00;;;;;;5074961;28;20444;-70
2021/09/05 08:12:34;;;;;;;58.40;2.93;;;17.20;1.00;;;;;;5074539;28;20510;-71
2021/09/05 08:15:01;;;;;;;58.60;3.03;;;17.40;1.00;;;;;;5074891;28;20853;-70
2021/09/05 08:17:29;;;;;;;58.47;2.60;;;17.50;1.00;;;;;;5074559;28;20936;-70
2021/09/05 08:19:56;;;;;;;60.27;2.70;;;17.60;1.00;;;;;;5074348;28;21000;-71
2021/09/05 08:22:23;;;;;;;58.37;2.40;;;17.80;1.00;;;;;;5074734;28;20701;-71
2021/09/05 08:24:50;;;;;;;58.17;2.40;;;18.00;1.00;;;;;;5074655;28;20484;-70
2021/09/05 08:27:17;;;;;;;58.30;2.90;;;18.20;1.00;;;;;;5074462;28;21041;-71
2021/09/05 08:29:44;;;;;;;58.60;3.10;;;18.30;1.00;;;;;;5074677;28;20450;-70
2021/09/05 08:32:10;;;;;;;58.37;2.90;;;18.50;1.00;;;;;;5074773;28;20883;-70
2021/09/05 08:34:39;;;;;;;58.30;3.47;;;18.60;1.00;;;;;;5074599;28;20463;-69
2021/09/05 08:37:06;;;;;;;59.43;2.80;;;18.80;1.00;;;;;;5074130;28;20810;-70
2021/09/05 08:39:33;;;;;;;57.97;2.97;;;19.00;1.00;;;;;;5074059;28;20542;-71
2021/09/05 08:42:00;;;;;;;57.93;2.80;;;19.10;1.00;;;;;;5074271;28;20492;-70
2021/09/05 08:44:27;;;;;;;58.03;2.90;;;19.30;1.00;;;;;;5074235;28;20455;-70
2021/09/05 08:46:55;;;;;;;58.70;3.50;;;19.50;1.00;;;;;;5074129;28;20443;-71
2021/09/05 08:49:26;;;;;;;58.10;2.60;;;19.60;1.00;;;;;;5074300;28;20531;-70
2021/09/05 08:51:55;;;;;;;58.30;2.80;;;19.80;1.00;;;;;;5074158;28;20443;-71
2021/09/05 08:54:22;;;;;;;58.07;2.50;;;19.90;1.00;;;;;;5074069;28;20482;-70
2021/09/05 08:56:49;;;;;;;58.63;3.27;;;20.10;1.00;;;;;;5073930;28;20822;-70
2021/09/05 08:59:16;;;;;;;58.13;2.80;;;20.30;1.00;;;;;;5073674;28;20447;-70
2021/09/05 09:01:53;;;;;;;58.60;2.70;;;20.50;1.00;;;;;;5073968;28;20486;-71
2021/09/05 09:04:20;;;;;;;58.17;2.50;;;20.60;1.00;;;;;;5073572;28;20479;-71
2021/09/05 09:06:47;;;;;;;58.30;2.70;;;20.80;1.00;;;;;;5073595;28;20534;-70
2021/09/05 09:09:15;;;;;;;58.17;2.50;;;20.90;1.00;;;;;;5073433;28;21028;-70
2021/09/05 09:11:50;;;;;;;58.10;2.80;;;21.20;1.00;;;;;;5072307;28;20979;-69
2021/09/05 09:14:18;;;;;;;57.93;2.60;;;21.40;1.00;;;;;;5073383;28;20490;-70
2021/09/05 09:16:44;;;;;;;58.37;2.57;;;21.50;1.00;;;;;;5073321;28;20538;-72
2021/09/05 09:19:23;;;;;;;58.87;3.50;;;21.70;1.00;;;;;;5073532;28;20454;-70
2021/09/05 09:21:49;;;;;;;58.07;2.67;;;21.90;1.00;;;;;;5073453;28;20479;-71
2021/09/05 09:24:18;;;;;;;58.80;3.70;;;22.10;1.00;;;;;;5073444;28;20471;-71
2021/09/05 09:27:03;;;;;;;57.97;2.80;;;22.40;1.00;;;;;;5073321;28;20457;-70
2021/09/05 09:29:30;;;;;;;59.57;2.80;;;22.60;1.00;;;;;;5072004;28;20881;-70
2021/09/05 09:31:59;;;;;;;58.00;2.40;;;22.80;1.00;;;;;;5073197;28;20531;-70
2021/09/05 09:34:26;;;;;;;58.27;2.50;;;23.00;1.00;;;;;;5073428;28;20530;-70
2021/09/05 09:36:57;;;;;;;60.30;2.90;;;23.30;1.00;;;;;;5073340;28;20837;-71
2021/09/05 09:39:28;;;;;;;58.27;2.80;;;23.50;1.00;;;;;;5072750;28;20439;-70
2021/09/05 09:41:55;;;;;;;58.00;2.67;;;23.60;1.00;;;;;;5073106;28;20570;-71
2021/09/05 09:44:29;;;;;;;58.17;2.40;;;23.80;1.00;;;;;;5072737;28;20555;-70
2021/09/05 09:47:09;;;;;;;58.17;2.67;;;24.20;1.00;;;;;;5072822;28;21001;-71
2021/09/05 09:49:48;;;;;;;58.70;2.70;;;24.50;1.00;;;;;;5072834;28;20438;-70
2021/09/05 09:52:17;;;;;;;57.87;2.50;;;24.80;1.00;;;;;;5072823;28;20443;-70
2021/09/05 09:54:46;;;;;;;58.20;2.47;;;24.90;1.00;;;;;;5072578;28;20457;-70
2021/09/05 09:57:13;;;;;;;58.30;2.30;;;25.10;1.00;;;;;;5072579;28;20452;-70
2021/09/05 09:59:40;;;;;;;58.10;2.23;;;25.60;1.00;;;;;;5072521;28;20940;-70
2021/09/05 10:02:12;;;;;;;57.87;2.70;;;26.80;1.00;;;;;;5072437;28;20569;-71
2021/09/05 10:04:39;;;;;;;58.47;3.10;;;28.40;1.00;;;;;;5072421;28;20542;-70
2021/09/05 10:07:06;;;;;;;57.90;2.50;;;30.00;1.00;;;;;;5072444;28;20534;-70
2021/09/05 10:09:33;;;;;;;58.20;3.07;;;31.20;1.00;;;;;;5072598;28;20508;-71
2021/09/05 10:12:03;;;;;;;57.60;2.40;;;32.30;1.00;;;;;;5072201;28;20526;-71
2021/09/05 10:14:30;;;;;;;57.27;2.20;;;32.90;1.00;;;;;;5072401;28;20534;-71
2021/09/05 10:16:57;;;;;;;58.07;2.57;;;33.80;1.00;;;;;;5072239;28;20999;-71
2021/09/05 10:19:24;;;;;;;57.33;2.40;;;34.30;1.00;;;;;;5072026;28;21039;-71
2021/09/05 10:21:51;;;;;;;57.83;2.37;;;34.10;1.00;;;;;;5071832;28;20482;-71
2021/09/05 10:24:19;;;;;;;58.20;2.60;;;33.60;1.00;;;;;;5072414;28;20565;-71
2021/09/05 10:27:05;;;;;;;57.87;2.20;;;33.10;1.00;;;;;;5072134;28;20458;-72
2021/09/05 10:29:32;;;;;;;57.30;2.27;;;33.70;1.00;;;;;;5072361;28;20462;-71
2021/09/05 10:31:59;;;;;;;58.00;3.10;;;34.40;1.00;;;;;;5071891;28;20539;-71
2021/09/05 10:34:34;;;;;;;57.10;2.30;;;35.30;1.00;;;;;;5072297;28;20450;-71
2021/09/05 10:37:06;;;;;;;57.57;2.63;;;36.00;1.00;;;;;;5072046;28;20453;-71
2021/09/05 10:39:33;;;;;;;57.07;2.37;;;36.50;1.00;;;;;;5071997;28;20444;-71
2021/09/05 10:42:00;;;;;;;57.07;2.50;;;37.10;1.00;;;;;;5071827;28;20489;-71
2021/09/05 10:44:29;;;;;;;57.00;2.23;;;37.40;1.00;;;;;;5072216;28;20443;-71
2021/09/05 10:46:56;;;;;;;57.00;2.13;;;37.10;1.00;;;;;;5071780;28;20462;-70
2021/09/05 10:49:39;;;;;;;57.40;2.60;;;36.80;1.00;;;;;;5071867;28;20470;-70
2021/09/05 10:52:07;;;;;;;57.33;3.37;;;37.10;1.00;;;;;;5072059;28;20866;-71
2021/09/05 10:54:47;;;;;;;58.27;4.07;;;37.60;1.00;;;;;;5071920;28;20450;-71
2021/09/05 10:57:40;;;;;;;57.20;2.50;;;38.00;1.00;;;;;;5071647;28;20477;-71
2021/09/05 11:00:10;;;;;;;57.67;2.83;;;37.60;1.00;;;;;;5071676;28;20444;-71
2021/09/05 11:03:07;;;;;;;57.47;2.50;;;37.60;1.00;;;;;;5071787;28;20569;-71
2021/09/05 11:05:34;;;;;;;57.30;2.50;;;37.70;1.00;;;;;;5071754;28;20443;-70
2021/09/05 11:08:22;;;;;;;57.07;2.43;;;37.80;1.00;;;;;;5071884;28;20486;-70
2021/09/05 11:10:50;;;;;;;57.27;2.70;;;37.80;1.00;;;;;;5071614;28;20443;-70
2021/09/05 11:13:47;;;;;;;57.37;2.43;;;38.00;1.00;;;;;;5071847;28;20870;-70
2021/09/05 11:16:19;;;;;;;57.00;2.43;;;38.30;1.00;;;;;;5071944;28;20427;-70
2021/09/05 11:18:46;;;;;;;56.57;2.23;;;38.80;1.00;;;;;;5071567;28;20451;-70
2021/09/05 11:21:25;;;;;;;56.83;2.60;;;39.20;1.00;;;;;;5071520;28;20503;-70
2021/09/05 11:23:54;;;;;;;57.43;2.70;;;39.60;1.00;;;;;;5071522;28;20877;-70
2021/09/05 11:26:21;;;;;;;57.37;2.50;;;39.90;1.00;;;;;;5071478;28;20513;-69
2021/09/05 11:28:50;;;;;;;57.00;2.10;;;40.00;1.00;;;;;;5071642;28;20832;-69
2021/09/05 11:31:18;;;;;;;57.07;2.20;;;40.00;1.00;;;;;;5071435;28;20804;-70
2021/09/05 11:33:45;;;;;;;56.17;2.10;;;40.00;1.00;;;;;;5071458;28;20546;-70
2021/09/05 11:36:12;;;;;;;57.00;2.13;;;40.20;1.00;;;;;;5075020;28;20813;-70
2021/09/05 11:38:39;;;;;;;56.57;2.17;;;40.60;1.00;;;;;;5075185;28;20539;-70
2021/09/05 11:41:06;;;;;;;56.47;2.37;;;41.20;1.00;;;;;;5075337;28;20565;-71
2021/09/05 11:43:34;;;;;;;56.67;2.20;;;41.80;1.00;;;;;;5075161;28;20463;-70
2021/09/05 11:46:10;;;;;;;56.37;2.20;;;42.30;1.00;;;;;;5075378;28;20447;-70
2021/09/05 11:48:38;;;;;;;56.40;2.23;;;42.30;1.00;;;;;;5075046;28;20955;-70
2021/09/05 11:51:05;;;;;;;56.80;2.53;;;42.10;1.00;;;;;;5074829;28;20565;-70
2021/09/05 11:53:32;;;;;;;56.50;2.20;;;41.80;1.00;;;;;;5074855;28;20463;-70
2021/09/05 11:55:59;;;;;;;57.03;2.40;;;41.80;1.00;;;;;;5075487;28;20533;-70
2021/09/05 11:58:26;;;;;;;59.00;3.27;;;41.70;1.00;;;;;;5075119;28;20449;-70
2021/09/05 12:00:56;;;;;;;57.20;3.10;;;41.40;1.00;;;;;;5074991;28;20440;-70
2021/09/05 12:03:29;;;;;;;56.17;2.67;;;41.20;1.00;;;;;;5074826;28;20475;-70
2021/09/05 12:05:57;;;;;;;57.17;2.53;;;41.20;1.00;;;;;;5074807;28;20589;-70
2021/09/05 12:08:24;;;;;;;56.87;2.40;;;40.90;1.00;;;;;;5075070;28;20547;-70
2021/09/05 12:11:02;;;;;;;57.07;2.43;;;41.20;1.00;;;;;;5074567;28;20454;-70
2021/09/05 12:13:45;;;;;;;56.60;2.50;;;41.80;1.00;;;;;;5074815;28;20840;-71
2021/09/05 12:16:20;;;;;;;56.13;2.03;;;42.20;1.00;;;;;;5074563;28;20869;-70
2021/09/05 12:19:00;;;;;;;57.27;2.77;;;41.90;1.00;;;;;;5074887;28;20515;-70
2021/09/05 12:21:31;;;;;;;56.97;2.50;;;41.90;1.00;;;;;;5074679;28;20521;-70
2021/09/05 12:23:58;;;;;;;57.20;2.50;;;41.70;1.00;;;;;;5074507;28;20467;-70
2021/09/05 12:26:25;;;;;;;56.77;2.30;;;41.60;1.00;;;;;;5074283;28;20451;-70
2021/09/05 12:28:58;;;;;;;56.97;2.60;;;41.60;1.00;;;;;;5074675;28;20476;-70
2021/09/05 12:31:42;;;;;;;56.80;2.50;;;42.10;1.00;;;;;;5074431;28;20558;-71
2021/09/05 12:34:10;;;;;;;56.10;2.20;;;42.40;1.00;;;;;;5074396;28;20759;-71
2021/09/05 12:36:38;;;;;;;58.57;3.33;;;42.50;1.00;;;;;;5074178;28;20530;-71
2021/09/05 12:39:05;;;;;;;56.80;2.20;;;42.10;1.00;;;;;;5074084;28;21042;-70
2021/09/05 12:41:33;;;;;;;56.50;1.90;;;42.10;1.00;;;;;;5074002;28;20534;-70
2021/09/05 12:44:01;;;;;;;56.90;2.50;;;42.00;1.00;;;;;;5074223;28;20812;-70
2021/09/05 12:46:38;;;;;;;57.37;3.57;;;42.00;1.00;;;;;;5074024;28;20538;-70
2021/09/05 12:49:12;;;;;;;56.90;2.30;;;42.10;1.00;;;;;;5074541;28;20435;-70
2021/09/05 12:51:49;;;;;;;56.87;2.20;;;41.80;1.00;;;;;;5073880;28;20482;-70
2021/09/05 12:54:17;;;;;;;56.17;2.00;;;41.30;1.00;;;;;;5073839;28;20549;-70